createdAt,value
2023-03-27T00:01:49.563Z,3.97
2023-03-27T00:04:20.302Z,4.22
2023-03-27T00:06:49.145Z,3.85
2023-03-27T00:09:19.213Z,4.35
2023-03-27T00:11:48.187Z,4.32
2023-03-27T00:14:17.296Z,3.72
2023-03-27T00:16:46.455Z,3.85
2023-03-27T00:19:15.355Z,3.67
2023-03-27T00:21:45.195Z,3.78
2023-03-27T00:24:16.159Z,4.00
2023-03-27T00:26:44.981Z,4.35
2023-03-27T00:29:14.073Z,5.22
2023-03-27T00:31:42.513Z,6.60
2023-03-27T00:34:11.819Z,7.38
2023-03-27T00:36:40.246Z,8.10
2023-03-27T00:39:10.406Z,8.02
2023-03-27T00:41:39.051Z,7.70
2023-03-27T00:44:24.026Z,8.40
2023-03-27T00:46:57.113Z,8.45
2023-03-27T00:49:29.844Z,8.15
2023-03-27T00:51:59.238Z,7.85
2023-03-27T00:54:31.862Z,7.13
2023-03-27T00:57:06.412Z,8.05
2023-03-27T00:59:40.843Z,7.82
2023-03-27T01:02:10.201Z,7.30
2023-03-27T01:04:39.935Z,7.35
2023-03-27T01:07:11.354Z,7.57
2023-03-27T01:09:42.254Z,6.65
2023-03-27T01:12:19.982Z,7.80
2023-03-27T01:15:05.564Z,7.90
2023-03-27T01:17:47.172Z,7.15
2023-03-27T01:21:00.397Z,6.35
2023-03-27T01:24:19.938Z,5.72
2023-03-27T01:27:02.142Z,5.07
2023-03-27T01:29:40.357Z,4.40
2023-03-27T01:32:42.894Z,5.78
2023-03-27T01:39:07.468Z,5.20
2023-03-27T01:44:43.735Z,5.47
2023-03-27T01:47:23.675Z,6.05
2023-03-27T01:50:04.624Z,6.68
2023-03-27T01:52:38.110Z,6.47
2023-03-27T01:55:11.640Z,6.25
2023-03-27T01:57:50.384Z,6.90
2023-03-27T02:00:23.378Z,6.28
2023-03-27T02:03:00.953Z,6.28
2023-03-27T02:05:34.531Z,5.93
2023-03-27T02:08:09.739Z,5.63
2023-03-27T02:10:43.330Z,5.93
2023-03-27T02:13:21.475Z,6.60
2023-03-27T02:15:53.131Z,6.10
2023-03-27T02:18:27.639Z,6.55
2023-03-27T02:20:56.482Z,6.93
2023-03-27T02:23:25.166Z,6.63
2023-03-27T02:25:55.509Z,6.13
2023-03-27T02:28:46.924Z,6.32
2023-03-27T02:31:35.234Z,6.35
2023-03-27T02:34:39.380Z,6.97
2023-03-27T02:37:16.389Z,6.28
2023-03-27T02:40:40.331Z,6.75
2023-03-27T02:43:32.525Z,7.93
2023-03-27T02:46:10.927Z,7.03
2023-03-27T02:48:44.946Z,8.70
2023-03-27T02:51:18.562Z,9.13
2023-03-27T02:53:51.461Z,7.47
2023-03-27T02:56:24.204Z,7.22
2023-03-27T02:58:57.710Z,6.82
2023-03-27T03:01:40.305Z,7.15
2023-03-27T03:04:22.157Z,6.80
2023-03-27T03:09:41.384Z,6.35
2023-03-27T03:12:10.818Z,6.43
2023-03-27T03:14:45.509Z,6.50
2023-03-27T03:17:16.712Z,7.45
2023-03-27T03:19:49.763Z,7.15
2023-03-27T03:22:18.254Z,7.15
2023-03-27T03:24:47.648Z,6.82
2023-03-27T03:27:21.218Z,7.22
2023-03-27T03:30:17.140Z,7.07
2023-03-27T03:33:01.211Z,7.47
2023-03-27T03:35:30.231Z,7.60
2023-03-27T03:38:01.068Z,8.68
2023-03-27T03:40:35.619Z,8.98
2023-03-27T03:43:04.106Z,11.40
2023-03-27T03:45:32.717Z,15.80
2023-03-27T03:48:05.734Z,9.77
2023-03-27T03:50:34.302Z,9.82
2023-03-27T03:53:02.745Z,9.20
2023-03-27T03:55:31.379Z,9.27
2023-03-27T03:57:59.994Z,9.07
2023-03-27T04:00:29.385Z,9.68
2023-03-27T04:02:59.491Z,10.30
2023-03-27T04:05:29.771Z,10.15
2023-03-27T04:08:00.616Z,9.57
2023-03-27T04:10:31.947Z,10.30
2023-03-27T04:13:04.030Z,10.50
2023-03-27T04:15:36.605Z,10.70
2023-03-27T04:18:24.762Z,9.50
2023-03-27T04:20:55.383Z,10.30
2023-03-27T04:23:30.419Z,10.32
2023-03-27T04:26:01.114Z,10.88
2023-03-27T04:28:45.915Z,10.80
2023-03-27T04:31:34.642Z,10.73
2023-03-27T04:34:38.421Z,11.50
2023-03-27T04:37:12.367Z,10.88
2023-03-27T04:39:46.856Z,11.45
2023-03-27T04:42:15.804Z,10.98
2023-03-27T04:44:47.736Z,10.82
2023-03-27T04:47:17.126Z,11.43
2023-03-27T04:49:47.282Z,11.10
2023-03-27T04:52:29.746Z,11.52
2023-03-27T04:57:30.966Z,10.07
2023-03-27T05:00:16.500Z,9.90
2023-03-27T05:02:48.920Z,9.88
2023-03-27T05:05:41.468Z,9.98
2023-03-27T05:08:12.263Z,10.00
2023-03-27T05:10:40.741Z,8.80
2023-03-27T05:13:09.304Z,8.55
2023-03-27T05:15:39.248Z,8.18
2023-03-27T05:18:10.440Z,7.88
2023-03-27T05:20:39.019Z,8.13
2023-03-27T05:23:12.464Z,8.32
2023-03-27T05:25:42.723Z,8.40
2023-03-27T05:28:15.470Z,8.38
2023-03-27T05:30:48.826Z,8.98
2023-03-27T05:33:20.770Z,8.98
2023-03-27T05:35:50.554Z,8.85
2023-03-27T05:38:26.415Z,8.23
2023-03-27T05:41:11.237Z,8.50
2023-03-27T05:43:45.379Z,9.65
2023-03-27T05:46:21.297Z,10.18
2023-03-27T05:49:06.043Z,9.60
2023-03-27T05:51:35.112Z,10.43
2023-03-27T05:54:05.333Z,10.02
2023-03-27T05:56:48.778Z,9.60
2023-03-27T05:59:35.934Z,9.43
2023-03-27T06:02:21.278Z,9.45
2023-03-27T06:05:05.065Z,9.68
2023-03-27T06:07:59.128Z,9.85
2023-03-27T06:10:30.506Z,8.90
2023-03-27T06:13:21.713Z,9.50
2023-03-27T06:15:57.956Z,9.07
2023-03-27T06:18:53.217Z,9.45
2023-03-27T06:21:22.629Z,9.35
2023-03-27T06:23:58.096Z,10.20
2023-03-27T06:32:45.408Z,9.23
2023-03-27T06:35:33.936Z,8.70
2023-03-27T06:38:23.088Z,9.65
2023-03-27T06:40:51.837Z,8.82
2023-03-27T06:43:22.729Z,9.60
2023-03-27T06:46:01.484Z,9.80
2023-03-27T06:48:39.709Z,9.15
2023-03-27T06:51:09.588Z,10.00
2023-03-27T06:53:39.182Z,9.05
2023-03-27T06:56:09.360Z,10.20
2023-03-27T06:58:59.381Z,8.80
2023-03-27T07:01:29.563Z,9.52
2023-03-27T07:04:13.495Z,8.85
2023-03-27T07:06:55.036Z,9.40
2023-03-27T07:09:24.325Z,9.68
2023-03-27T07:12:01.789Z,9.07
2023-03-27T07:14:32.755Z,8.75
2023-03-27T07:17:01.657Z,8.65
2023-03-27T07:19:43.251Z,7.72
2023-03-27T07:22:14.341Z,8.20
2023-03-27T07:24:42.981Z,8.95
2023-03-27T07:27:12.493Z,8.55
2023-03-27T07:29:43.874Z,7.13
2023-03-27T07:32:26.036Z,7.95
2023-03-27T07:35:06.513Z,6.55
2023-03-27T07:37:57.871Z,7.55
2023-03-27T07:40:40.555Z,7.35
2023-03-27T07:43:42.643Z,8.13
2023-03-27T07:46:13.919Z,6.78
2023-03-27T07:48:42.575Z,7.18
2023-03-27T07:51:17.344Z,6.80
2023-03-27T07:53:46.141Z,6.82
2023-03-27T07:56:23.596Z,6.60
2023-03-27T07:59:08.653Z,17.45
2023-03-27T08:01:38.554Z,7.60
2023-03-27T08:04:08.598Z,7.43
2023-03-27T08:06:39.969Z,7.97
2023-03-27T08:09:15.868Z,7.95
2023-03-27T08:11:44.453Z,8.35
2023-03-27T08:14:13.202Z,7.03
2023-03-27T08:16:43.139Z,8.20
2023-03-27T08:19:13.086Z,7.70
2023-03-27T08:21:47.082Z,7.72
2023-03-27T08:24:17.269Z,6.85
2023-03-27T08:27:12.351Z,8.20
2023-03-27T08:29:45.028Z,7.70
2023-03-27T08:32:16.056Z,7.65
2023-03-27T08:34:46.066Z,7.28
2023-03-27T08:37:20.236Z,7.85
2023-03-27T08:40:26.383Z,7.97
2023-03-27T08:43:17.397Z,6.65
2023-03-27T08:45:50.974Z,7.20
2023-03-27T08:48:31.724Z,8.02
2023-03-27T08:51:04.565Z,6.57
2023-03-27T08:53:40.751Z,6.82
2023-03-27T08:56:14.540Z,7.00
2023-03-27T08:58:44.836Z,7.07
2023-03-27T09:01:29.646Z,6.78
2023-03-27T09:04:09.007Z,6.75
2023-03-27T09:06:49.498Z,7.28
2023-03-27T09:09:32.251Z,7.68
2023-03-27T09:12:07.475Z,7.35
2023-03-27T09:14:44.148Z,7.75
2023-03-27T09:17:21.706Z,7.05
2023-03-27T09:19:56.874Z,7.65
2023-03-27T09:22:32.904Z,8.30
2023-03-27T09:25:28.464Z,7.40
2023-03-27T09:28:23.683Z,7.70
2023-03-27T09:31:21.683Z,6.60
2023-03-27T09:33:50.586Z,6.55
2023-03-27T09:36:21.963Z,6.20
2023-03-27T09:38:53.961Z,6.90
2023-03-27T09:41:31.389Z,6.47
2023-03-27T09:44:04.736Z,6.15
2023-03-27T09:46:38.115Z,6.45
2023-03-27T09:49:13.636Z,6.15
2023-03-27T09:51:50.220Z,5.68
2023-03-27T09:54:53.391Z,6.00
2023-03-27T09:57:33.992Z,5.78
2023-03-27T10:00:14.502Z,5.28
2023-03-27T10:02:45.794Z,5.82
2023-03-27T10:05:23.260Z,5.22
2023-03-27T10:07:57.827Z,5.68
2023-03-27T10:10:45.996Z,5.35
2023-03-27T10:13:18.240Z,5.45
2023-03-27T10:15:50.791Z,5.80
2023-03-27T10:18:30.201Z,5.15
2023-03-27T10:21:27.024Z,5.53
2023-03-27T10:24:04.255Z,5.70
2023-03-27T10:26:55.980Z,5.40
2023-03-27T10:29:27.972Z,5.20
2023-03-27T10:31:58.143Z,5.55
2023-03-27T10:34:59.821Z,5.55
2023-03-27T10:37:49.917Z,5.75
2023-03-27T10:40:41.224Z,5.65
2023-03-27T10:43:30.146Z,5.47
2023-03-27T10:46:04.682Z,4.88
2023-03-27T10:48:45.411Z,5.30
2023-03-27T10:51:33.133Z,5.57
2023-03-27T10:54:17.447Z,5.43
2023-03-27T10:57:02.645Z,6.25
2023-03-27T10:59:41.763Z,5.70
2023-03-27T11:02:24.910Z,5.47
2023-03-27T11:04:57.498Z,7.05
2023-03-27T11:07:34.160Z,5.05
2023-03-27T11:10:14.885Z,5.13
2023-03-27T11:12:55.482Z,5.00
2023-03-27T11:15:30.629Z,4.45
2023-03-27T11:18:05.735Z,5.72
2023-03-27T11:20:46.149Z,5.30
2023-03-27T11:23:36.770Z,4.35
2023-03-27T11:26:26.953Z,4.40
2023-03-27T11:29:06.073Z,4.45
2023-03-27T11:31:46.699Z,4.50
2023-03-27T11:34:31.263Z,4.10
2023-03-27T11:37:23.540Z,4.45
2023-03-27T11:39:56.211Z,4.38
2023-03-27T11:42:27.941Z,4.70
2023-03-27T11:44:59.032Z,4.57
2023-03-27T11:48:19.369Z,4.50
2023-03-27T11:51:07.031Z,4.53
2023-03-27T11:54:29.331Z,3.95
2023-03-27T11:57:22.047Z,4.38
2023-03-27T12:00:30.579Z,3.90
2023-03-27T12:03:36.864Z,4.10
2023-03-27T12:06:14.884Z,4.22
2023-03-27T12:09:14.433Z,4.13
2023-03-27T12:12:17.196Z,3.88
2023-03-27T12:14:58.767Z,3.92
2023-03-27T12:17:46.098Z,4.25
2023-03-27T12:20:53.333Z,4.32
2023-03-27T12:23:53.495Z,4.20
2023-03-27T12:27:17.606Z,4.22
2023-03-27T12:30:19.009Z,4.05
2023-03-27T12:33:20.711Z,3.92
2023-03-27T12:35:53.969Z,5.78
2023-03-27T12:38:30.239Z,4.57
2023-03-27T12:41:06.443Z,3.90
2023-03-27T12:44:13.833Z,2.67
2023-03-27T12:47:09.040Z,2.78
2023-03-27T12:49:57.153Z,2.60
2023-03-27T12:52:30.388Z,2.65
2023-03-27T12:55:09.566Z,3.63
2023-03-27T12:57:57.151Z,3.50
2023-03-27T13:00:54.463Z,3.42
2023-03-27T13:04:05.864Z,3.30
2023-03-27T13:06:48.357Z,4.35
2023-03-27T13:09:43.349Z,3.28
2023-03-27T13:12:50.795Z,3.25
2023-03-27T13:15:31.237Z,3.80
2023-03-27T13:18:28.477Z,3.40
2023-03-27T13:21:06.738Z,4.63
2023-03-27T13:23:56.167Z,2.85
2023-03-27T13:26:40.656Z,2.70
2023-03-27T13:29:18.012Z,2.92
2023-03-27T13:32:19.424Z,3.13
2023-03-27T13:35:20.418Z,2.97
2023-03-27T13:37:59.264Z,3.20
2023-03-27T13:40:39.731Z,3.20
2023-03-27T13:43:26.703Z,3.25
2023-03-27T13:46:07.919Z,3.88
2023-03-27T13:49:04.899Z,3.67
2023-03-27T13:51:53.766Z,4.30
2023-03-27T13:54:39.479Z,3.78
2023-03-27T13:57:24.233Z,4.18
2023-03-27T14:00:26.723Z,3.80
2023-03-27T14:03:49.406Z,5.53
2023-03-27T14:06:57.154Z,3.35
2023-03-27T14:09:41.525Z,3.55
2023-03-27T14:12:32.138Z,3.70
2023-03-27T14:15:25.418Z,3.60
2023-03-27T14:18:37.906Z,3.42
2023-03-27T14:21:12.616Z,3.90
2023-03-27T14:23:50.780Z,3.80
2023-03-27T14:26:49.798Z,3.63
2023-03-27T14:29:21.606Z,4.32
2023-03-27T14:31:52.940Z,5.05
2023-03-27T14:37:40.307Z,4.82
2023-03-27T14:40:23.227Z,3.45
2023-03-27T14:42:58.265Z,3.88
2023-03-27T14:45:31.264Z,3.45
2023-03-27T14:48:09.541Z,3.22
2023-03-27T14:50:47.625Z,3.53
2023-03-27T14:53:26.335Z,3.33
2023-03-27T14:56:13.013Z,3.33
2023-03-27T14:59:02.198Z,3.38
2023-03-27T15:01:48.881Z,3.30
2023-03-27T15:04:19.306Z,3.70
2023-03-27T15:06:56.148Z,4.25
2023-03-27T15:09:48.813Z,3.50
2023-03-27T15:12:36.052Z,3.85
2023-03-27T15:15:06.627Z,4.10
2023-03-27T15:17:38.836Z,4.40
2023-03-27T15:20:15.870Z,3.70
2023-03-27T15:22:55.714Z,6.03
2023-03-27T15:25:36.293Z,4.53
2023-03-27T15:28:11.624Z,3.72
2023-03-27T15:30:51.556Z,5.55
2023-03-27T15:35:56.138Z,4.53
2023-03-27T15:38:29.091Z,4.15
2023-03-27T15:41:03.642Z,3.58
2023-03-27T15:43:32.327Z,3.53
2023-03-27T15:46:04.329Z,3.80
2023-03-27T15:48:36.077Z,4.10
2023-03-27T15:51:07.973Z,3.90
2023-03-27T15:53:38.977Z,3.78
2023-03-27T15:56:16.975Z,3.58
2023-03-27T15:58:49.569Z,3.70
2023-03-27T16:01:23.681Z,3.97
2023-03-27T16:03:56.146Z,4.20
2023-03-27T16:08:56.879Z,3.47
2023-03-27T16:11:36.911Z,4.40
2023-03-27T16:14:05.799Z,3.67
2023-03-27T16:16:35.287Z,3.80
2023-03-27T16:19:12.392Z,3.30
2023-03-27T16:21:55.561Z,4.22
2023-03-27T16:24:24.171Z,3.55
2023-03-27T16:26:54.911Z,3.97
2023-03-27T16:29:24.812Z,4.53
2023-03-27T16:31:53.312Z,3.83
2023-03-27T16:34:23.915Z,3.33
2023-03-27T16:36:52.476Z,3.40
2023-03-27T16:39:22.542Z,3.30
2023-03-27T16:41:54.165Z,3.92
2023-03-27T16:44:22.597Z,3.88
2023-03-27T16:46:51.748Z,4.22
2023-03-27T16:49:20.591Z,4.10
2023-03-27T16:51:50.833Z,3.97
2023-03-27T16:54:20.037Z,3.65
2023-03-27T16:56:52.612Z,4.22
2023-03-27T16:59:21.731Z,3.90
2023-03-27T17:01:50.346Z,4.07
2023-03-27T17:04:23.294Z,4.22
2023-03-27T17:06:53.607Z,3.92
2023-03-27T17:09:24.360Z,3.88
2023-03-27T17:11:53.074Z,4.10
2023-03-27T17:14:24.296Z,3.78
2023-03-27T17:17:02.994Z,3.88
2023-03-27T17:19:40.402Z,4.25
2023-03-27T17:22:17.018Z,4.57
2023-03-27T17:24:56.052Z,4.22
2023-03-27T17:27:27.069Z,3.95
2023-03-27T17:29:56.975Z,4.80
2023-03-27T17:32:26.294Z,4.68
2023-03-27T17:34:55.422Z,4.93
2023-03-27T17:37:26.153Z,4.10
2023-03-27T17:39:55.101Z,4.30
2023-03-27T17:42:23.927Z,4.85
2023-03-27T17:44:52.656Z,4.50
2023-03-27T17:47:30.912Z,4.88
2023-03-27T17:50:08.525Z,4.43
2023-03-27T17:52:38.410Z,5.15
2023-03-27T17:55:07.688Z,4.63
2023-03-27T17:57:40.682Z,4.65
2023-03-27T18:00:10.794Z,4.95
2023-03-27T18:02:44.865Z,4.50
2023-03-27T18:06:31.671Z,4.57
2023-03-27T18:09:12.726Z,3.70
2023-03-27T18:14:29.425Z,3.42
2023-03-27T18:17:09.065Z,3.53
2023-03-27T18:19:37.799Z,3.92
2023-03-27T18:22:10.449Z,4.15
2023-03-27T18:24:40.625Z,3.85
2023-03-27T18:27:10.783Z,3.75
2023-03-27T18:29:39.236Z,3.35
2023-03-27T18:32:10.971Z,3.40
2023-03-27T18:34:52.778Z,3.30
2023-03-27T18:37:23.134Z,3.05
2023-03-27T18:39:56.167Z,3.50
2023-03-27T18:42:30.762Z,3.60
2023-03-27T18:45:08.450Z,4.03
2023-03-27T18:47:38.604Z,3.58
2023-03-27T18:50:09.533Z,3.95
2023-03-27T18:52:40.881Z,3.83
2023-03-27T18:55:13.203Z,4.00
2023-03-27T18:57:41.710Z,3.58
2023-03-27T19:00:13.997Z,4.18
2023-03-27T19:02:42.931Z,3.85
2023-03-27T19:05:11.787Z,4.80
2023-03-27T19:07:44.356Z,4.40
2023-03-27T19:10:15.339Z,4.03
2023-03-27T19:12:49.755Z,4.13
2023-03-27T19:15:37.049Z,4.20
2023-03-27T19:18:30.034Z,4.32
2023-03-27T19:21:35.084Z,5.28
2023-03-27T19:24:05.665Z,4.07
2023-03-27T19:26:42.255Z,4.20
2023-03-27T19:29:11.245Z,3.42
2023-03-27T19:31:41.970Z,3.40
2023-03-27T19:34:10.580Z,4.13
2023-03-27T19:36:49.235Z,7.03
2023-03-27T19:39:23.312Z,4.68
2023-03-27T19:41:54.784Z,4.13
2023-03-27T19:44:23.897Z,3.35
2023-03-27T19:46:52.517Z,3.08
2023-03-27T19:49:21.058Z,3.00
2023-03-27T19:52:13.010Z,2.70
2023-03-27T19:54:41.730Z,2.75
2023-03-27T19:57:11.819Z,2.67
2023-03-27T19:59:40.402Z,2.83
2023-03-27T20:02:09.085Z,3.58
2023-03-27T20:04:37.523Z,2.97
2023-03-27T20:07:07.186Z,3.20
2023-03-27T20:09:37.480Z,3.38
2023-03-27T20:12:07.216Z,2.88
2023-03-27T20:14:39.784Z,2.88
2023-03-27T20:17:21.361Z,3.05
2023-03-27T20:19:55.911Z,3.50
2023-03-27T20:22:24.404Z,3.30
2023-03-27T20:24:52.926Z,4.40
2023-03-27T20:27:23.504Z,3.55
2023-03-27T20:29:53.795Z,3.45
2023-03-27T20:32:22.772Z,4.10
2023-03-27T20:34:51.404Z,3.80
2023-03-27T20:37:20.628Z,3.42
2023-03-27T20:40:12.302Z,3.75
2023-03-27T20:42:47.040Z,3.70
2023-03-27T20:45:19.413Z,3.33
2023-03-27T20:47:48.887Z,3.40
2023-03-27T20:50:18.712Z,3.50
2023-03-27T20:52:48.347Z,3.15
2023-03-27T20:55:32.438Z,3.30
2023-03-27T20:58:06.482Z,3.00
2023-03-27T21:00:36.734Z,3.25
2023-03-27T21:03:05.909Z,3.63
2023-03-27T21:05:38.408Z,3.85
2023-03-27T21:08:07.662Z,3.55
2023-03-27T21:10:36.759Z,3.50
2023-03-27T21:13:06.374Z,3.55
2023-03-27T21:15:39.631Z,3.40
2023-03-27T21:18:08.076Z,3.40
2023-03-27T21:20:36.806Z,3.47
2023-03-27T21:23:05.679Z,2.90
2023-03-27T21:25:35.612Z,3.70
2023-03-27T21:28:07.577Z,3.15
2023-03-27T21:30:46.487Z,3.15
2023-03-27T21:35:47.285Z,2.70
2023-03-27T21:38:17.069Z,3.10
2023-03-27T21:40:47.839Z,3.50
2023-03-27T21:43:17.136Z,3.08
2023-03-27T21:45:50.351Z,3.10
2023-03-27T21:48:19.062Z,3.80
2023-03-27T21:50:48.379Z,3.50
2023-03-27T21:53:17.373Z,3.20
2023-03-27T21:55:47.487Z,3.40
2023-03-27T21:58:15.913Z,3.80
2023-03-27T22:00:48.152Z,3.53
2023-03-27T22:03:16.905Z,3.55
2023-03-27T22:05:51.588Z,3.25
2023-03-27T22:08:29.823Z,3.65
2023-03-27T22:10:59.967Z,3.35
2023-03-27T22:13:28.817Z,3.10
2023-03-27T22:15:58.854Z,2.92
2023-03-27T22:18:27.630Z,2.70
2023-03-27T22:20:56.065Z,2.83
2023-03-27T22:23:24.463Z,3.33
2023-03-27T22:25:54.239Z,2.85
2023-03-27T22:28:22.950Z,3.22
2023-03-27T22:30:52.409Z,2.88
2023-03-27T22:33:22.628Z,2.90
2023-03-27T22:35:51.712Z,3.10
2023-03-27T22:38:20.243Z,2.63
2023-03-27T22:40:48.686Z,3.42
2023-03-27T22:43:22.955Z,3.13
2023-03-27T22:45:52.582Z,3.10
2023-03-27T22:48:22.834Z,2.85
2023-03-27T22:50:55.630Z,3.03
2023-03-27T22:53:25.189Z,3.30
2023-03-27T22:55:55.201Z,3.30
2023-03-27T22:58:23.816Z,3.03
2023-03-27T23:00:53.698Z,3.83
2023-03-27T23:03:24.531Z,3.65
2023-03-27T23:05:54.570Z,3.13
2023-03-27T23:08:27.166Z,2.97
2023-03-27T23:10:56.908Z,3.30
2023-03-27T23:13:26.194Z,3.13
2023-03-27T23:15:55.033Z,3.28
2023-03-27T23:18:25.481Z,2.75
2023-03-27T23:20:58.267Z,2.80
2023-03-27T23:23:27.611Z,3.00
2023-03-27T23:25:57.936Z,2.95
2023-03-27T23:28:27.364Z,3.13
2023-03-27T23:30:56.408Z,2.90
2023-03-27T23:33:27.190Z,2.60
2023-03-27T23:36:02.295Z,2.92
2023-03-27T23:38:31.724Z,2.45
2023-03-27T23:41:01.276Z,2.78
2023-03-27T23:43:31.052Z,2.70
2023-03-27T23:46:00.546Z,2.60
2023-03-27T23:48:31.600Z,2.47
2023-03-27T23:51:00.006Z,2.50
2023-03-27T23:53:29.340Z,2.53
2023-03-27T23:55:59.394Z,2.42
2023-03-27T23:58:33.180Z,2.95
